sensor_id;sensor_type;location;lat;lon;timestamp;pressure;altitude;pressure_sealevel;temperature;humidity
73171;BME280;61381;50.118;19.962;2022-10-31T00:02:47;98993.44;;;8.67;100.00
73171;BME280;61381;50.118;19.962;2022-10-31T00:07:52;98995.44;;;8.44;100.00
73171;BME280;61381;50.118;19.962;2022-10-31T00:12:53;98997.41;;;8.27;100.00
73171;BME280;61381;50.118;19.962;2022-10-31T00:17:53;99005.75;;;8.30;100.00
73171;BME280;61381;50.118;19.962;2022-10-31T00:22:58;99008.72;;;8.39;100.00
73171;BME280;61381;50.118;19.962;2022-10-31T00:27:59;99003.31;;;8.66;100.00
73171;BME280;61381;50.118;19.962;2022-10-31T00:33:03;99013.78;;;8.35;100.00
73171;BME280;61381;50.118;19.962;2022-10-31T00:38:05;99010.63;;;8.44;100.00
73171;BME280;61381;50.118;19.962;2022-10-31T00:43:06;99012.69;;;8.69;100.00
73171;BME280;61381;50.118;19.962;2022-10-31T00:48:06;99010.53;;;8.71;100.00
73171;BME280;61381;50.118;19.962;2022-10-31T00:53:09;99019.75;;;8.48;100.00
73171;BME280;61381;50.118;19.962;2022-10-31T00:58:10;99010.53;;;8.66;100.00
73171;BME280;61381;50.118;19.962;2022-10-31T01:03:10;99007.34;;;8.69;100.00
73171;BME280;61381;50.118;19.962;2022-10-31T01:08:13;99012.16;;;8.34;100.00
73171;BME280;61381;50.118;19.962;2022-10-31T01:13:14;99007.66;;;8.02;100.00
73171;BME280;61381;50.118;19.962;2022-10-31T01:18:14;99005.19;;;7.96;100.00
73171;BME280;61381;50.118;19.962;2022-10-31T01:23:17;99011.91;;;7.71;100.00
73171;BME280;61381;50.118;19.962;2022-10-31T01:28:18;99015.53;;;7.60;100.00
73171;BME280;61381;50.118;19.962;2022-10-31T01:33:18;99009.72;;;7.63;100.00
73171;BME280;61381;50.118;19.962;2022-10-31T01:38:21;99007.06;;;7.68;100.00
73171;BME280;61381;50.118;19.962;2022-10-31T01:43:21;99000.19;;;7.72;100.00
73171;BME280;61381;50.118;19.962;2022-10-31T01:48:25;98987.84;;;7.93;100.00
73171;BME280;61381;50.118;19.962;2022-10-31T01:53:29;98992.31;;;8.20;100.00
73171;BME280;61381;50.118;19.962;2022-10-31T01:58:31;98999.56;;;8.30;100.00
73171;BME280;61381;50.118;19.962;2022-10-31T02:03:32;98991.09;;;8.38;100.00
73171;BME280;61381;50.118;19.962;2022-10-31T02:08:35;98987.25;;;8.56;100.00
73171;BME280;61381;50.118;19.962;2022-10-31T02:13:38;98990.66;;;8.51;100.00
73171;BME280;61381;50.118;19.962;2022-10-31T02:18:39;98991.31;;;8.69;100.00
73171;BME280;61381;50.118;19.962;2022-10-31T02:35:10;98996.13;;;8.67;100.00
73171;BME280;61381;50.118;19.962;2022-10-31T02:40:17;98995.28;;;8.66;100.00
73171;BME280;61381;50.118;19.962;2022-10-31T02:45:25;98999.25;;;8.59;100.00
73171;BME280;61381;50.118;19.962;2022-10-31T02:50:32;99003.31;;;8.66;100.00
73171;BME280;61381;50.118;19.962;2022-10-31T02:55:56;99019.03;;;8.57;100.00
73171;BME280;61381;50.118;19.962;2022-10-31T03:01:28;99016.66;;;8.66;100.00
73171;BME280;61381;50.118;19.962;2022-10-31T03:06:40;99022.25;;;8.60;100.00
73171;BME280;61381;50.118;19.962;2022-10-31T03:11:47;99017.16;;;8.58;100.00
73171;BME280;61381;50.118;19.962;2022-10-31T03:16:55;99015.88;;;8.66;100.00
73171;BME280;61381;50.118;19.962;2022-10-31T03:22:04;99025.00;;;8.75;100.00
73171;BME280;61381;50.118;19.962;2022-10-31T03:27:09;99017.25;;;8.73;100.00
73171;BME280;61381;50.118;19.962;2022-10-31T03:32:14;99028.94;;;8.62;100.00
73171;BME280;61381;50.118;19.962;2022-10-31T03:37:19;99029.47;;;8.59;100.00
73171;BME280;61381;50.118;19.962;2022-10-31T03:42:24;99035.31;;;8.56;100.00
73171;BME280;61381;50.118;19.962;2022-10-31T03:47:25;99039.63;;;8.62;100.00
73171;BME280;61381;50.118;19.962;2022-10-31T03:52:35;99038.03;;;8.66;100.00
73171;BME280;61381;50.118;19.962;2022-10-31T03:57:39;99032.16;;;8.69;100.00
73171;BME280;61381;50.118;19.962;2022-10-31T04:02:45;99035.34;;;8.61;100.00
73171;BME280;61381;50.118;19.962;2022-10-31T04:07:51;99033.69;;;8.55;100.00
73171;BME280;61381;50.118;19.962;2022-10-31T04:12:57;99033.13;;;8.53;100.00
73171;BME280;61381;50.118;19.962;2022-10-31T04:18:01;99034.66;;;8.44;100.00
73171;BME280;61381;50.118;19.962;2022-10-31T04:23:13;99035.03;;;8.25;100.00
73171;BME280;61381;50.118;19.962;2022-10-31T04:28:18;99032.81;;;8.12;100.00
73171;BME280;61381;50.118;19.962;2022-10-31T04:33:19;99038.91;;;8.07;100.00
73171;BME280;61381;50.118;19.962;2022-10-31T04:38:21;99037.00;;;8.02;100.00
73171;BME280;61381;50.118;19.962;2022-10-31T04:43:22;99037.06;;;7.80;100.00
73171;BME280;61381;50.118;19.962;2022-10-31T04:48:24;99039.31;;;7.94;100.00
73171;BME280;61381;50.118;19.962;2022-10-31T04:53:26;99043.66;;;8.00;100.00
73171;BME280;61381;50.118;19.962;2022-10-31T04:58:27;99042.53;;;7.96;100.00
73171;BME280;61381;50.118;19.962;2022-10-31T05:03:28;99038.84;;;8.02;100.00
73171;BME280;61381;50.118;19.962;2022-10-31T05:08:30;99045.53;;;7.99;100.00
73171;BME280;61381;50.118;19.962;2022-10-31T05:13:31;99046.56;;;7.98;100.00
73171;BME280;61381;50.118;19.962;2022-10-31T05:18:32;99048.53;;;7.81;100.00
73171;BME280;61381;50.118;19.962;2022-10-31T05:23:34;99049.59;;;7.80;100.00
73171;BME280;61381;50.118;19.962;2022-10-31T05:28:35;99057.59;;;7.80;100.00
73171;BME280;61381;50.118;19.962;2022-10-31T05:33:36;99064.34;;;7.88;100.00
73171;BME280;61381;50.118;19.962;2022-10-31T05:38:38;99069.03;;;8.02;100.00
73171;BME280;61381;50.118;19.962;2022-10-31T05:43:39;99079.00;;;8.17;100.00
73171;BME280;61381;50.118;19.962;2022-10-31T05:48:39;99068.00;;;8.41;100.00
73171;BME280;61381;50.118;19.962;2022-10-31T05:53:42;99076.63;;;8.48;100.00
73171;BME280;61381;50.118;19.962;2022-10-31T05:58:42;99077.22;;;8.55;100.00
73171;BME280;61381;50.118;19.962;2022-10-31T06:03:43;99081.84;;;8.65;100.00
73171;BME280;61381;50.118;19.962;2022-10-31T06:08:45;99086.34;;;8.60;100.00
73171;BME280;61381;50.118;19.962;2022-10-31T06:13:46;99090.81;;;8.54;100.00
73171;BME280;61381;50.118;19.962;2022-10-31T06:18:47;99091.69;;;8.65;100.00
73171;BME280;61381;50.118;19.962;2022-10-31T06:23:49;99107.28;;;8.78;100.00
73171;BME280;61381;50.118;19.962;2022-10-31T06:28:50;99111.97;;;8.98;100.00
73171;BME280;61381;50.118;19.962;2022-10-31T06:33:51;99115.06;;;9.27;100.00
73171;BME280;61381;50.118;19.962;2022-10-31T06:38:53;99117.28;;;9.41;100.00
73171;BME280;61381;50.118;19.962;2022-10-31T06:43:54;99116.72;;;9.39;100.00
73171;BME280;61381;50.118;19.962;2022-10-31T06:48:55;99128.16;;;9.29;100.00
73171;BME280;61381;50.118;19.962;2022-10-31T06:53:57;99138.91;;;9.39;100.00
73171;BME280;61381;50.118;19.962;2022-10-31T06:58:58;99129.34;;;9.54;100.00
73171;BME280;61381;50.118;19.962;2022-10-31T07:03:59;99128.63;;;9.74;100.00
73171;BME280;61381;50.118;19.962;2022-10-31T07:09:01;99140.16;;;9.85;100.00
73171;BME280;61381;50.118;19.962;2022-10-31T07:14:02;99137.78;;;9.88;100.00
73171;BME280;61381;50.118;19.962;2022-10-31T07:19:03;99140.97;;;9.90;100.00
73171;BME280;61381;50.118;19.962;2022-10-31T07:24:05;99141.81;;;9.96;100.00
73171;BME280;61381;50.118;19.962;2022-10-31T07:29:06;99146.66;;;10.20;100.00
73171;BME280;61381;50.118;19.962;2022-10-31T07:34:07;99147.53;;;10.71;100.00
73171;BME280;61381;50.118;19.962;2022-10-31T07:39:09;99147.50;;;11.23;100.00
73171;BME280;61381;50.118;19.962;2022-10-31T07:44:10;99139.66;;;11.42;100.00
73171;BME280;61381;50.118;19.962;2022-10-31T07:49:11;99141.06;;;11.19;100.00
73171;BME280;61381;50.118;19.962;2022-10-31T07:54:13;99140.50;;;11.27;100.00
73171;BME280;61381;50.118;19.962;2022-10-31T07:59:14;99137.25;;;11.35;100.00
73171;BME280;61381;50.118;19.962;2022-10-31T08:04:15;99137.19;;;11.56;99.59
73171;BME280;61381;50.118;19.962;2022-10-31T08:09:17;99136.00;;;11.77;97.44
73171;BME280;61381;50.118;19.962;2022-10-31T08:14:18;99135.28;;;12.17;94.54
73171;BME280;61381;50.118;19.962;2022-10-31T08:19:19;99137.56;;;12.39;92.51
73171;BME280;61381;50.118;19.962;2022-10-31T08:24:21;99146.19;;;12.70;91.51
73171;BME280;61381;50.118;19.962;2022-10-31T08:29:22;99146.00;;;12.91;89.44
73171;BME280;61381;50.118;19.962;2022-10-31T08:34:24;99139.78;;;13.25;87.21
73171;BME280;61381;50.118;19.962;2022-10-31T08:39:26;99136.75;;;13.55;84.21
73171;BME280;61381;50.118;19.962;2022-10-31T08:44:27;99140.50;;;13.79;84.17
73171;BME280;61381;50.118;19.962;2022-10-31T08:49:28;99132.88;;;14.05;81.98
73171;BME280;61381;50.118;19.962;2022-10-31T08:54:30;99135.56;;;14.43;79.18
73171;BME280;61381;50.118;19.962;2022-10-31T08:59:31;99133.50;;;14.87;76.86
73171;BME280;61381;50.118;19.962;2022-10-31T09:04:31;99122.97;;;15.32;75.34
73171;BME280;61381;50.118;19.962;2022-10-31T09:09:34;99125.78;;;15.82;75.37
73171;BME280;61381;50.118;19.962;2022-10-31T09:14:35;99132.69;;;15.61;76.61
73171;BME280;61381;50.118;19.962;2022-10-31T09:19:35;99123.97;;;15.78;76.08
73171;BME280;61381;50.118;19.962;2022-10-31T09:24:38;99127.31;;;16.11;75.35
73171;BME280;61381;50.118;19.962;2022-10-31T09:29:38;99128.44;;;16.33;76.23
73171;BME280;61381;50.118;19.962;2022-10-31T09:34:39;99125.13;;;16.58;74.66
73171;BME280;61381;50.118;19.962;2022-10-31T09:39:41;99140.00;;;16.70;73.64
73171;BME280;61381;50.118;19.962;2022-10-31T09:44:49;99141.00;;;16.83;71.19
73171;BME280;61381;50.118;19.962;2022-10-31T09:50:02;99140.22;;;17.05;72.00
73171;BME280;61381;50.118;19.962;2022-10-31T09:55:17;99145.59;;;17.36;70.52
73171;BME280;61381;50.118;19.962;2022-10-31T10:00:21;99141.59;;;17.74;70.41
73171;BME280;61381;50.118;19.962;2022-10-31T10:05:27;99146.69;;;17.75;68.25
73171;BME280;61381;50.118;19.962;2022-10-31T10:10:40;99144.03;;;18.02;68.17
73171;BME280;61381;50.118;19.962;2022-10-31T10:16:03;99138.78;;;18.14;65.69
73171;BME280;61381;50.118;19.962;2022-10-31T10:21:18;99130.31;;;18.33;65.14
73171;BME280;61381;50.118;19.962;2022-10-31T10:26:28;99131.28;;;18.54;64.40
73171;BME280;61381;50.118;19.962;2022-10-31T10:31:34;99131.75;;;18.65;65.54
73171;BME280;61381;50.118;19.962;2022-10-31T10:36:41;99128.84;;;18.70;65.04
73171;BME280;61381;50.118;19.962;2022-10-31T10:41:47;99132.19;;;18.94;63.77
73171;BME280;61381;50.118;19.962;2022-10-31T10:46:51;99120.34;;;18.98;63.82
73171;BME280;61381;50.118;19.962;2022-10-31T10:51:58;99114.38;;;19.14;63.41
73171;BME280;61381;50.118;19.962;2022-10-31T10:57:09;99122.47;;;19.31;62.58
73171;BME280;61381;50.118;19.962;2022-10-31T11:02:17;99113.06;;;19.20;62.50
73171;BME280;61381;50.118;19.962;2022-10-31T11:07:18;99116.94;;;19.49;61.39
73171;BME280;61381;50.118;19.962;2022-10-31T11:12:22;99121.00;;;19.64;61.28
73171;BME280;61381;50.118;19.962;2022-10-31T11:17:29;99122.59;;;19.65;61.00
73171;BME280;61381;50.118;19.962;2022-10-31T11:22:31;99111.53;;;19.78;60.45
73171;BME280;61381;50.118;19.962;2022-10-31T11:27:33;99109.00;;;19.94;60.35
73171;BME280;61381;50.118;19.962;2022-10-31T11:32:34;99104.34;;;20.16;59.54
73171;BME280;61381;50.118;19.962;2022-10-31T11:37:40;99105.28;;;19.99;60.32
73171;BME280;61381;50.118;19.962;2022-10-31T11:42:44;99101.97;;;20.14;58.44
73171;BME280;61381;50.118;19.962;2022-10-31T11:47:48;99109.50;;;20.30;59.25
73171;BME280;61381;50.118;19.962;2022-10-31T11:52:50;99096.47;;;20.57;58.17
73171;BME280;61381;50.118;19.962;2022-10-31T11:57:53;99097.25;;;20.57;57.26
73171;BME280;61381;50.118;19.962;2022-10-31T12:03:10;99097.56;;;20.43;58.16
73171;BME280;61381;50.118;19.962;2022-10-31T12:08:13;99090.59;;;20.67;58.14
73171;BME280;61381;50.118;19.962;2022-10-31T12:13:28;99082.59;;;20.83;57.49
73171;BME280;61381;50.118;19.962;2022-10-31T12:18:40;99081.59;;;21.00;56.60
73171;BME280;61381;50.118;19.962;2022-10-31T12:23:56;99074.88;;;20.85;56.39
73171;BME280;61381;50.118;19.962;2022-10-31T12:29:11;99075.69;;;20.98;56.82
73171;BME280;61381;50.118;19.962;2022-10-31T12:34:42;99073.97;;;20.93;57.14
73171;BME280;61381;50.118;19.962;2022-10-31T12:39:53;99074.19;;;20.88;56.48
73171;BME280;61381;50.118;19.962;2022-10-31T12:45:14;99070.03;;;21.03;56.74
73171;BME280;61381;50.118;19.962;2022-10-31T12:50:25;99071.94;;;21.02;56.77
73171;BME280;61381;50.118;19.962;2022-10-31T12:55:43;99064.31;;;20.96;56.80
73171;BME280;61381;50.118;19.962;2022-10-31T13:00:51;99052.72;;;20.74;57.39
73171;BME280;61381;50.118;19.962;2022-10-31T13:05:58;99062.63;;;20.79;57.81
73171;BME280;61381;50.118;19.962;2022-10-31T13:11:08;99058.84;;;20.71;57.50
73171;BME280;61381;50.118;19.962;2022-10-31T13:16:15;99066.28;;;20.62;57.17
73171;BME280;61381;50.118;19.962;2022-10-31T13:21:20;99063.38;;;20.67;57.71
73171;BME280;61381;50.118;19.962;2022-10-31T13:26:33;99061.94;;;20.48;58.17
73171;BME280;61381;50.118;19.962;2022-10-31T13:31:39;99063.78;;;20.44;58.88
73171;BME280;61381;50.118;19.962;2022-10-31T13:36:41;99062.69;;;20.37;58.62
73171;BME280;61381;50.118;19.962;2022-10-31T13:41:45;99059.31;;;20.40;59.04
73171;BME280;61381;50.118;19.962;2022-10-31T13:46:49;99056.22;;;20.29;58.85
73171;BME280;61381;50.118;19.962;2022-10-31T13:51:51;99059.47;;;20.22;59.19
73171;BME280;61381;50.118;19.962;2022-10-31T13:56:52;99059.69;;;20.17;59.56
73171;BME280;61381;50.118;19.962;2022-10-31T14:01:56;99055.94;;;20.09;60.76
73171;BME280;61381;50.118;19.962;2022-10-31T14:07:05;99055.16;;;19.88;60.51
73171;BME280;61381;50.118;19.962;2022-10-31T14:12:09;99055.13;;;19.67;60.98
73171;BME280;61381;50.118;19.962;2022-10-31T14:17:24;99044.94;;;19.55;61.59
73171;BME280;61381;50.118;19.962;2022-10-31T14:22:29;99055.28;;;19.40;62.17
73171;BME280;61381;50.118;19.962;2022-10-31T14:27:34;99050.47;;;19.16;62.89
73171;BME280;61381;50.118;19.962;2022-10-31T14:32:37;99046.59;;;18.87;64.22
73171;BME280;61381;50.118;19.962;2022-10-31T14:38:00;99044.84;;;18.74;64.38
73171;BME280;61381;50.118;19.962;2022-10-31T14:43:31;99040.31;;;18.48;66.02
73171;BME280;61381;50.118;19.962;2022-10-31T14:48:51;99043.41;;;18.12;67.23
73171;BME280;61381;50.118;19.962;2022-10-31T14:53:56;99039.88;;;17.85;68.58
73171;BME280;61381;50.118;19.962;2022-10-31T14:59:00;99044.16;;;17.51;70.40
73171;BME280;61381;50.118;19.962;2022-10-31T15:04:05;99045.03;;;17.20;71.63
73171;BME280;61381;50.118;19.962;2022-10-31T15:09:20;99051.50;;;17.02;72.17
73171;BME280;61381;50.118;19.962;2022-10-31T15:14:23;99042.13;;;16.76;74.68
73171;BME280;61381;50.118;19.962;2022-10-31T15:19:28;99049.41;;;16.36;75.70
73171;BME280;61381;50.118;19.962;2022-10-31T15:24:33;99055.56;;;16.05;77.59
73171;BME280;61381;50.118;19.962;2022-10-31T15:29:35;99046.25;;;15.61;80.43
73171;BME280;61381;50.118;19.962;2022-10-31T15:34:39;99043.81;;;15.09;83.27
73171;BME280;61381;50.118;19.962;2022-10-31T15:39:40;99047.09;;;14.78;84.91
73171;BME280;61381;50.118;19.962;2022-10-31T15:44:41;99058.13;;;14.30;87.52
73171;BME280;61381;50.118;19.962;2022-10-31T15:49:48;99048.34;;;14.01;89.12
73171;BME280;61381;50.118;19.962;2022-10-31T15:54:51;99056.00;;;13.74;90.55
73171;BME280;61381;50.118;19.962;2022-10-31T15:59:54;99054.97;;;13.51;91.95
73171;BME280;61381;50.118;19.962;2022-10-31T16:04:58;99061.78;;;13.19;93.91
73171;BME280;61381;50.118;19.962;2022-10-31T16:10:00;99065.56;;;12.94;95.54
73171;BME280;61381;50.118;19.962;2022-10-31T16:15:03;99065.06;;;12.63;97.86
73171;BME280;61381;50.118;19.962;2022-10-31T16:20:07;99073.03;;;12.44;99.03
73171;BME280;61381;50.118;19.962;2022-10-31T16:25:10;99068.78;;;12.38;99.40
73171;BME280;61381;50.118;19.962;2022-10-31T16:30:36;99073.28;;;12.13;100.00
73171;BME280;61381;50.118;19.962;2022-10-31T16:35:38;99067.47;;;11.95;100.00
73171;BME280;61381;50.118;19.962;2022-10-31T16:40:40;99072.69;;;11.71;100.00
73171;BME280;61381;50.118;19.962;2022-10-31T16:45:43;99075.19;;;11.57;100.00
73171;BME280;61381;50.118;19.962;2022-10-31T16:50:47;99072.28;;;11.49;100.00
73171;BME280;61381;50.118;19.962;2022-10-31T16:55:53;99071.88;;;11.21;100.00
73171;BME280;61381;50.118;19.962;2022-10-31T17:00:55;99074.06;;;10.93;100.00
73171;BME280;61381;50.118;19.962;2022-10-31T17:05:57;99080.00;;;10.85;100.00
73171;BME280;61381;50.118;19.962;2022-10-31T17:10:58;99075.47;;;10.70;100.00
73171;BME280;61381;50.118;19.962;2022-10-31T17:16:01;99081.63;;;10.76;100.00
73171;BME280;61381;50.118;19.962;2022-10-31T17:21:04;99081.38;;;10.51;100.00
73171;BME280;61381;50.118;19.962;2022-10-31T17:26:05;99078.72;;;10.46;100.00
73171;BME280;61381;50.118;19.962;2022-10-31T17:31:06;99070.13;;;10.39;100.00
73171;BME280;61381;50.118;19.962;2022-10-31T17:36:10;99080.03;;;10.33;100.00
73171;BME280;61381;50.118;19.962;2022-10-31T17:41:11;99072.75;;;10.13;100.00
73171;BME280;61381;50.118;19.962;2022-10-31T17:46:12;99071.44;;;9.95;100.00
73171;BME280;61381;50.118;19.962;2022-10-31T17:51:14;99065.78;;;9.92;100.00
73171;BME280;61381;50.118;19.962;2022-10-31T17:56:15;99071.09;;;9.81;100.00
73171;BME280;61381;50.118;19.962;2022-10-31T18:01:17;99079.41;;;9.80;100.00
73171;BME280;61381;50.118;19.962;2022-10-31T18:06:19;99078.88;;;9.78;100.00
73171;BME280;61381;50.118;19.962;2022-10-31T18:11:20;99068.94;;;9.63;100.00
73171;BME280;61381;50.118;19.962;2022-10-31T18:16:22;99068.13;;;9.68;100.00
73171;BME280;61381;50.118;19.962;2022-10-31T18:21:24;99059.28;;;9.46;100.00
73171;BME280;61381;50.118;19.962;2022-10-31T18:26:26;99063.78;;;9.41;100.00
73171;BME280;61381;50.118;19.962;2022-10-31T18:31:28;99066.97;;;9.33;100.00
73171;BME280;61381;50.118;19.962;2022-10-31T18:36:30;99059.22;;;9.31;100.00
73171;BME280;61381;50.118;19.962;2022-10-31T18:41:31;99057.88;;;9.28;100.00
73171;BME280;61381;50.118;19.962;2022-10-31T18:46:33;99054.59;;;9.16;100.00
73171;BME280;61381;50.118;19.962;2022-10-31T18:51:38;99056.19;;;9.17;100.00
73171;BME280;61381;50.118;19.962;2022-10-31T18:56:39;99067.41;;;9.14;100.00
73171;BME280;61381;50.118;19.962;2022-10-31T19:01:40;99062.44;;;9.38;100.00
73171;BME280;61381;50.118;19.962;2022-10-31T19:06:42;99049.09;;;9.54;100.00
73171;BME280;61381;50.118;19.962;2022-10-31T19:11:43;99058.50;;;9.61;100.00
73171;BME280;61381;50.118;19.962;2022-10-31T19:16:44;99053.03;;;9.25;100.00
73171;BME280;61381;50.118;19.962;2022-10-31T19:21:46;99043.53;;;8.92;100.00
73171;BME280;61381;50.118;19.962;2022-10-31T19:26:47;99042.06;;;8.74;100.00
73171;BME280;61381;50.118;19.962;2022-10-31T19:31:48;99054.00;;;8.56;100.00
73171;BME280;61381;50.118;19.962;2022-10-31T19:36:51;99052.94;;;8.57;100.00
73171;BME280;61381;50.118;19.962;2022-10-31T19:41:52;99048.81;;;8.82;100.00
73171;BME280;61381;50.118;19.962;2022-10-31T19:46:53;99053.41;;;8.91;100.00
73171;BME280;61381;50.118;19.962;2022-10-31T19:51:55;99054.16;;;8.82;100.00
73171;BME280;61381;50.118;19.962;2022-10-31T19:56:56;99049.16;;;8.53;100.00
73171;BME280;61381;50.118;19.962;2022-10-31T20:01:57;99047.00;;;8.50;100.00
73171;BME280;61381;50.118;19.962;2022-10-31T20:06:59;99040.50;;;8.40;100.00
73171;BME280;61381;50.118;19.962;2022-10-31T20:12:00;99033.97;;;8.21;100.00
73171;BME280;61381;50.118;19.962;2022-10-31T20:17:01;99038.03;;;8.29;100.00
73171;BME280;61381;50.118;19.962;2022-10-31T20:22:03;99031.09;;;8.33;100.00
73171;BME280;61381;50.118;19.962;2022-10-31T20:27:04;99029.25;;;8.33;100.00
73171;BME280;61381;50.118;19.962;2022-10-31T20:32:05;99029.66;;;8.20;100.00
73171;BME280;61381;50.118;19.962;2022-10-31T20:37:07;99033.50;;;7.97;100.00
73171;BME280;61381;50.118;19.962;2022-10-31T20:42:08;99028.84;;;7.87;100.00
73171;BME280;61381;50.118;19.962;2022-10-31T20:47:09;99034.28;;;7.97;100.00
73171;BME280;61381;50.118;19.962;2022-10-31T20:52:11;99027.16;;;8.08;100.00
73171;BME280;61381;50.118;19.962;2022-10-31T20:57:12;99031.63;;;7.97;100.00
73171;BME280;61381;50.118;19.962;2022-10-31T21:02:12;99025.84;;;7.78;100.00
73171;BME280;61381;50.118;19.962;2022-10-31T21:07:15;99022.28;;;7.67;100.00
73171;BME280;61381;50.118;19.962;2022-10-31T21:12:16;99020.66;;;7.66;100.00
73171;BME280;61381;50.118;19.962;2022-10-31T21:17:16;99025.25;;;7.71;100.00
73171;BME280;61381;50.118;19.962;2022-10-31T21:22:19;99016.97;;;7.73;100.00
73171;BME280;61381;50.118;19.962;2022-10-31T21:27:19;99015.03;;;7.63;100.00
73171;BME280;61381;50.118;19.962;2022-10-31T21:32:21;99014.81;;;7.70;100.00
73171;BME280;61381;50.118;19.962;2022-10-31T21:37:23;99014.16;;;7.57;100.00
73171;BME280;61381;50.118;19.962;2022-10-31T21:42:24;99012.97;;;7.43;100.00
73171;BME280;61381;50.118;19.962;2022-10-31T21:47:24;99005.41;;;7.62;100.00
73171;BME280;61381;50.118;19.962;2022-10-31T21:52:27;99010.31;;;7.43;100.00
73171;BME280;61381;50.118;19.962;2022-10-31T21:57:27;99006.28;;;7.18;100.00
73171;BME280;61381;50.118;19.962;2022-10-31T22:02:28;98996.00;;;7.05;100.00
73171;BME280;61381;50.118;19.962;2022-10-31T22:07:31;98993.44;;;7.15;100.00
73171;BME280;61381;50.118;19.962;2022-10-31T22:12:32;98983.44;;;7.49;100.00
73171;BME280;61381;50.118;19.962;2022-10-31T22:17:33;98978.22;;;7.92;100.00
73171;BME280;61381;50.118;19.962;2022-10-31T22:22:35;98968.78;;;8.12;100.00
73171;BME280;61381;50.118;19.962;2022-10-31T22:27:36;98965.72;;;7.65;100.00
73171;BME280;61381;50.118;19.962;2022-10-31T22:32:37;98963.72;;;7.23;100.00
73171;BME280;61381;50.118;19.962;2022-10-31T22:37:39;98960.44;;;7.16;100.00
73171;BME280;61381;50.118;19.962;2022-10-31T22:42:40;98958.97;;;7.03;100.00
73171;BME280;61381;50.118;19.962;2022-10-31T22:47:40;98959.13;;;6.96;100.00
73171;BME280;61381;50.118;19.962;2022-10-31T22:52:43;98953.84;;;6.74;100.00
73171;BME280;61381;50.118;19.962;2022-10-31T22:57:43;98951.41;;;6.73;100.00
73171;BME280;61381;50.118;19.962;2022-10-31T23:02:44;98947.38;;;6.70;100.00
73171;BME280;61381;50.118;19.962;2022-10-31T23:07:46;98948.50;;;6.74;100.00
73171;BME280;61381;50.118;19.962;2022-10-31T23:12:47;98946.59;;;6.70;100.00
73171;BME280;61381;50.118;19.962;2022-10-31T23:17:48;98936.53;;;6.55;100.00
73171;BME280;61381;50.118;19.962;2022-10-31T23:22:50;98933.50;;;6.46;100.00
73171;BME280;61381;50.118;19.962;2022-10-31T23:27:51;98924.84;;;6.56;100.00
73171;BME280;61381;50.118;19.962;2022-10-31T23:32:52;98917.22;;;6.87;100.00
73171;BME280;61381;50.118;19.962;2022-10-31T23:37:54;98915.22;;;6.99;100.00
73171;BME280;61381;50.118;19.962;2022-10-31T23:42:55;98915.38;;;6.87;100.00
73171;BME280;61381;50.118;19.962;2022-10-31T23:47:55;98905.78;;;6.86;100.00
73171;BME280;61381;50.118;19.962;2022-10-31T23:52:58;98908.31;;;6.76;100.00
73171;BME280;61381;50.118;19.962;2022-10-31T23:57:59;98905.59;;;6.71;100.00
